sensor_id;sensor_type;location;lat;lon;timestamp;temperature;humidity
40257;DHT22;25977;45.462;9.210;2022-10-16T00:00:45;20.30;77.30
40257;DHT22;25977;45.462;9.210;2022-10-16T00:03:11;20.30;77.50
40257;DHT22;25977;45.462;9.210;2022-10-16T00:05:41;20.30;77.40
40257;DHT22;25977;45.462;9.210;2022-10-16T00:08:10;20.30;77.50
40257;DHT22;25977;45.462;9.210;2022-10-16T00:10:36;20.70;77.60
40257;DHT22;25977;45.462;9.210;2022-10-16T00:13:02;20.30;77.40
40257;DHT22;25977;45.462;9.210;2022-10-16T00:15:28;20.30;77.50
40257;DHT22;25977;45.462;9.210;2022-10-16T00:17:54;20.30;77.40
40257;DHT22;25977;45.462;9.210;2022-10-16T00:20:20;20.30;77.40
40257;DHT22;25977;45.462;9.210;2022-10-16T00:22:46;20.30;77.40
40257;DHT22;25977;45.462;9.210;2022-10-16T00:25:12;20.30;77.40
40257;DHT22;25977;45.462;9.210;2022-10-16T00:27:37;20.30;77.40
40257;DHT22;25977;45.462;9.210;2022-10-16T00:30:03;20.30;77.40
40257;DHT22;25977;45.462;9.210;2022-10-16T00:32:29;20.30;77.40
40257;DHT22;25977;45.462;9.210;2022-10-16T00:34:55;20.30;77.30
40257;DHT22;25977;45.462;9.210;2022-10-16T00:37:21;20.30;77.30
40257;DHT22;25977;45.462;9.210;2022-10-16T00:39:47;20.30;77.40
40257;DHT22;25977;45.462;9.210;2022-10-16T00:42:16;20.20;77.40
40257;DHT22;25977;45.462;9.210;2022-10-16T00:44:48;20.20;77.50
40257;DHT22;25977;45.462;9.210;2022-10-16T00:47:34;20.20;77.50
40257;DHT22;25977;45.462;9.210;2022-10-16T00:50:13;20.10;77.60
40257;DHT22;25977;45.462;9.210;2022-10-16T00:52:43;20.10;77.70
40257;DHT22;25977;45.462;9.210;2022-10-16T00:55:10;20.10;77.60
40257;DHT22;25977;45.462;9.210;2022-10-16T00:57:36;20.10;77.60
40257;DHT22;25977;45.462;9.210;2022-10-16T01:00:08;20.10;77.50
40257;DHT22;25977;45.462;9.210;2022-10-16T01:02:34;20.20;77.60
40257;DHT22;25977;45.462;9.210;2022-10-16T01:05:01;20.10;77.50
40257;DHT22;25977;45.462;9.210;2022-10-16T01:12:57;20.10;77.60
40257;DHT22;25977;45.462;9.210;2022-10-16T01:18:11;20.10;77.50
40257;DHT22;25977;45.462;9.210;2022-10-16T01:20:54;20.10;78.00
40257;DHT22;25977;45.462;9.210;2022-10-16T01:28:37;20.10;77.50
40257;DHT22;25977;45.462;9.210;2022-10-16T01:31:04;20.20;77.50
40257;DHT22;25977;45.462;9.210;2022-10-16T01:33:39;20.10;77.50
40257;DHT22;25977;45.462;9.210;2022-10-16T01:36:14;20.10;77.70
40257;DHT22;25977;45.462;9.210;2022-10-16T01:38:44;20.10;77.70
40257;DHT22;25977;45.462;9.210;2022-10-16T01:43:45;20.10;77.70
40257;DHT22;25977;45.462;9.210;2022-10-16T01:46:16;20.10;77.80
40257;DHT22;25977;45.462;9.210;2022-10-16T01:48:42;20.00;77.80
40257;DHT22;25977;45.462;9.210;2022-10-16T01:51:13;20.00;77.90
40257;DHT22;25977;45.462;9.210;2022-10-16T01:53:42;20.00;78.00
40257;DHT22;25977;45.462;9.210;2022-10-16T01:56:10;20.00;78.00
40257;DHT22;25977;45.462;9.210;2022-10-16T01:58:42;20.00;78.10
40257;DHT22;25977;45.462;9.210;2022-10-16T02:01:12;20.00;78.20
40257;DHT22;25977;45.462;9.210;2022-10-16T02:03:42;20.00;78.20
40257;DHT22;25977;45.462;9.210;2022-10-16T02:06:08;20.00;78.20
40257;DHT22;25977;45.462;9.210;2022-10-16T02:08:35;20.00;78.20
40257;DHT22;25977;45.462;9.210;2022-10-16T02:11:02;20.00;78.20
40257;DHT22;25977;45.462;9.210;2022-10-16T02:13:30;20.00;78.30
40257;DHT22;25977;45.462;9.210;2022-10-16T02:15:56;20.00;78.30
40257;DHT22;25977;45.462;9.210;2022-10-16T02:18:22;20.00;78.30
40257;DHT22;25977;45.462;9.210;2022-10-16T02:20:59;20.00;78.40
40257;DHT22;25977;45.462;9.210;2022-10-16T02:23:35;20.00;78.40
40257;DHT22;25977;45.462;9.210;2022-10-16T02:26:04;20.00;78.40
40257;DHT22;25977;45.462;9.210;2022-10-16T02:28:46;20.00;78.30
40257;DHT22;25977;45.462;9.210;2022-10-16T02:31:16;20.10;78.30
40257;DHT22;25977;45.462;9.210;2022-10-16T02:33:44;20.10;78.30
40257;DHT22;25977;45.462;9.210;2022-10-16T02:36:12;20.10;78.20
40257;DHT22;25977;45.462;9.210;2022-10-16T02:38:39;20.10;78.30
40257;DHT22;25977;45.462;9.210;2022-10-16T02:41:05;20.10;78.30
40257;DHT22;25977;45.462;9.210;2022-10-16T02:43:31;20.10;78.30
40257;DHT22;25977;45.462;9.210;2022-10-16T02:45:59;20.10;78.30
40257;DHT22;25977;45.462;9.210;2022-10-16T02:48:25;20.10;78.30
40257;DHT22;25977;45.462;9.210;2022-10-16T02:50:51;20.00;78.40
40257;DHT22;25977;45.462;9.210;2022-10-16T02:53:16;20.00;78.30
40257;DHT22;25977;45.462;9.210;2022-10-16T02:55:42;20.00;78.40
40257;DHT22;25977;45.462;9.210;2022-10-16T02:58:08;20.00;78.30
40257;DHT22;25977;45.462;9.210;2022-10-16T03:00:34;20.00;78.40
40257;DHT22;25977;45.462;9.210;2022-10-16T03:03:00;20.00;78.40
40257;DHT22;25977;45.462;9.210;2022-10-16T03:05:26;20.00;78.50
40257;DHT22;25977;45.462;9.210;2022-10-16T03:07:52;20.00;78.50
40257;DHT22;25977;45.462;9.210;2022-10-16T03:10:18;20.00;78.60
40257;DHT22;25977;45.462;9.210;2022-10-16T03:12:44;20.00;78.70
40257;DHT22;25977;45.462;9.210;2022-10-16T03:15:09;20.00;78.80
40257;DHT22;25977;45.462;9.210;2022-10-16T03:17:35;20.00;78.90
40257;DHT22;25977;45.462;9.210;2022-10-16T03:20:01;20.00;78.90
40257;DHT22;25977;45.462;9.210;2022-10-16T03:22:27;20.00;78.90
40257;DHT22;25977;45.462;9.210;2022-10-16T03:24:53;20.00;78.90
40257;DHT22;25977;45.462;9.210;2022-10-16T03:27:18;19.90;78.90
40257;DHT22;25977;45.462;9.210;2022-10-16T03:29:44;19.80;79.10
40257;DHT22;25977;45.462;9.210;2022-10-16T03:32:10;19.80;79.10
40257;DHT22;25977;45.462;9.210;2022-10-16T03:34:35;19.90;79.20
40257;DHT22;25977;45.462;9.210;2022-10-16T03:37:01;19.90;79.10
40257;DHT22;25977;45.462;9.210;2022-10-16T03:39:27;19.90;79.20
40257;DHT22;25977;45.462;9.210;2022-10-16T03:41:52;20.00;79.20
40257;DHT22;25977;45.462;9.210;2022-10-16T03:44:18;20.00;78.90
40257;DHT22;25977;45.462;9.210;2022-10-16T03:46:44;20.00;78.80
40257;DHT22;25977;45.462;9.210;2022-10-16T03:49:09;20.00;78.90
40257;DHT22;25977;45.462;9.210;2022-10-16T03:51:35;19.90;78.70
40257;DHT22;25977;45.462;9.210;2022-10-16T03:54:01;19.90;78.90
40257;DHT22;25977;45.462;9.210;2022-10-16T03:56:27;19.90;78.80
40257;DHT22;25977;45.462;9.210;2022-10-16T03:58:53;19.90;78.70
40257;DHT22;25977;45.462;9.210;2022-10-16T04:01:18;19.90;78.70
40257;DHT22;25977;45.462;9.210;2022-10-16T04:03:44;19.90;78.70
40257;DHT22;25977;45.462;9.210;2022-10-16T04:06:09;19.90;78.80
40257;DHT22;25977;45.462;9.210;2022-10-16T04:08:35;20.00;78.80
40257;DHT22;25977;45.462;9.210;2022-10-16T04:11:03;20.00;78.80
40257;DHT22;25977;45.462;9.210;2022-10-16T04:13:29;20.00;78.70
40257;DHT22;25977;45.462;9.210;2022-10-16T04:15:54;20.00;78.70
40257;DHT22;25977;45.462;9.210;2022-10-16T04:18:21;20.00;78.50
40257;DHT22;25977;45.462;9.210;2022-10-16T04:20:46;20.00;78.50
40257;DHT22;25977;45.462;9.210;2022-10-16T04:23:12;20.00;78.60
40257;DHT22;25977;45.462;9.210;2022-10-16T04:25:38;20.00;78.70
40257;DHT22;25977;45.462;9.210;2022-10-16T04:28:03;20.00;78.70
40257;DHT22;25977;45.462;9.210;2022-10-16T04:30:29;20.00;78.70
40257;DHT22;25977;45.462;9.210;2022-10-16T04:32:55;20.00;78.60
40257;DHT22;25977;45.462;9.210;2022-10-16T04:35:21;20.00;78.70
40257;DHT22;25977;45.462;9.210;2022-10-16T04:37:47;20.00;78.60
40257;DHT22;25977;45.462;9.210;2022-10-16T04:40:13;20.00;78.70
40257;DHT22;25977;45.462;9.210;2022-10-16T04:42:40;20.00;78.70
40257;DHT22;25977;45.462;9.210;2022-10-16T04:45:07;19.90;78.80
40257;DHT22;25977;45.462;9.210;2022-10-16T04:47:33;19.90;78.90
40257;DHT22;25977;45.462;9.210;2022-10-16T04:49:59;19.90;78.90
40257;DHT22;25977;45.462;9.210;2022-10-16T04:52:26;19.90;79.00
40257;DHT22;25977;45.462;9.210;2022-10-16T04:54:52;20.00;79.00
40257;DHT22;25977;45.462;9.210;2022-10-16T04:57:19;20.00;79.10
40257;DHT22;25977;45.462;9.210;2022-10-16T04:59:45;19.90;79.00
40257;DHT22;25977;45.462;9.210;2022-10-16T05:02:10;19.90;79.10
40257;DHT22;25977;45.462;9.210;2022-10-16T05:04:36;19.90;79.10
40257;DHT22;25977;45.462;9.210;2022-10-16T05:07:02;19.90;79.10
40257;DHT22;25977;45.462;9.210;2022-10-16T05:09:27;20.00;79.20
40257;DHT22;25977;45.462;9.210;2022-10-16T05:11:53;20.00;79.20
40257;DHT22;25977;45.462;9.210;2022-10-16T05:14:19;20.00;79.20
40257;DHT22;25977;45.462;9.210;2022-10-16T05:16:45;20.00;79.30
40257;DHT22;25977;45.462;9.210;2022-10-16T05:19:11;20.00;79.20
40257;DHT22;25977;45.462;9.210;2022-10-16T05:21:36;20.00;79.30
40257;DHT22;25977;45.462;9.210;2022-10-16T05:24:03;20.00;79.30
40257;DHT22;25977;45.462;9.210;2022-10-16T05:26:29;20.00;79.40
40257;DHT22;25977;45.462;9.210;2022-10-16T05:28:55;20.00;79.50
40257;DHT22;25977;45.462;9.210;2022-10-16T05:31:20;19.90;79.50
40257;DHT22;25977;45.462;9.210;2022-10-16T05:33:46;19.90;79.50
40257;DHT22;25977;45.462;9.210;2022-10-16T05:36:12;19.90;79.50
40257;DHT22;25977;45.462;9.210;2022-10-16T05:38:38;19.90;79.60
40257;DHT22;25977;45.462;9.210;2022-10-16T05:41:05;19.90;79.60
40257;DHT22;25977;45.462;9.210;2022-10-16T05:43:31;20.00;79.70
40257;DHT22;25977;45.462;9.210;2022-10-16T05:46:00;20.00;79.80
40257;DHT22;25977;45.462;9.210;2022-10-16T05:48:26;20.00;79.70
40257;DHT22;25977;45.462;9.210;2022-10-16T05:51:04;20.00;79.60
40257;DHT22;25977;45.462;9.210;2022-10-16T05:53:31;20.00;79.60
40257;DHT22;25977;45.462;9.210;2022-10-16T05:55:58;20.00;79.50
40257;DHT22;25977;45.462;9.210;2022-10-16T05:58:24;20.00;79.50
40257;DHT22;25977;45.462;9.210;2022-10-16T06:01:01;20.00;79.50
40257;DHT22;25977;45.462;9.210;2022-10-16T06:03:27;20.00;79.60
40257;DHT22;25977;45.462;9.210;2022-10-16T06:05:54;20.00;79.50
40257;DHT22;25977;45.462;9.210;2022-10-16T06:08:21;20.00;79.50
40257;DHT22;25977;45.462;9.210;2022-10-16T06:10:47;20.00;79.50
40257;DHT22;25977;45.462;9.210;2022-10-16T06:13:14;20.00;79.50
40257;DHT22;25977;45.462;9.210;2022-10-16T06:15:42;20.00;79.60
40257;DHT22;25977;45.462;9.210;2022-10-16T06:18:09;20.00;79.50
40257;DHT22;25977;45.462;9.210;2022-10-16T06:20:35;20.00;79.60
40257;DHT22;25977;45.462;9.210;2022-10-16T06:23:01;20.00;79.60
40257;DHT22;25977;45.462;9.210;2022-10-16T06:25:27;20.00;79.70
40257;DHT22;25977;45.462;9.210;2022-10-16T06:27:53;20.00;79.70
40257;DHT22;25977;45.462;9.210;2022-10-16T06:30:18;20.00;79.70
40257;DHT22;25977;45.462;9.210;2022-10-16T06:32:44;20.00;79.70
40257;DHT22;25977;45.462;9.210;2022-10-16T06:35:10;20.00;79.70
40257;DHT22;25977;45.462;9.210;2022-10-16T06:37:35;20.00;79.70
40257;DHT22;25977;45.462;9.210;2022-10-16T06:40:01;19.90;79.70
40257;DHT22;25977;45.462;9.210;2022-10-16T06:42:29;20.00;79.80
40257;DHT22;25977;45.462;9.210;2022-10-16T06:44:56;19.90;79.70
40257;DHT22;25977;45.462;9.210;2022-10-16T06:47:21;19.90;79.80
40257;DHT22;25977;45.462;9.210;2022-10-16T06:49:47;20.00;79.90
40257;DHT22;25977;45.462;9.210;2022-10-16T06:52:13;20.00;79.90
40257;DHT22;25977;45.462;9.210;2022-10-16T06:54:38;20.00;79.90
40257;DHT22;25977;45.462;9.210;2022-10-16T06:57:04;20.00;79.80
40257;DHT22;25977;45.462;9.210;2022-10-16T06:59:30;20.00;79.80
40257;DHT22;25977;45.462;9.210;2022-10-16T07:01:56;20.00;79.90
40257;DHT22;25977;45.462;9.210;2022-10-16T07:04:21;20.00;79.90
40257;DHT22;25977;45.462;9.210;2022-10-16T07:06:47;20.00;80.00
40257;DHT22;25977;45.462;9.210;2022-10-16T07:09:13;20.00;80.00
40257;DHT22;25977;45.462;9.210;2022-10-16T07:11:39;20.00;80.00
40257;DHT22;25977;45.462;9.210;2022-10-16T07:14:15;20.10;80.00
40257;DHT22;25977;45.462;9.210;2022-10-16T07:16:41;20.00;80.00
40257;DHT22;25977;45.462;9.210;2022-10-16T07:19:08;20.00;79.80
40257;DHT22;25977;45.462;9.210;2022-10-16T07:21:34;20.00;79.50
40257;DHT22;25977;45.462;9.210;2022-10-16T07:24:06;19.90;79.70
40257;DHT22;25977;45.462;9.210;2022-10-16T07:26:34;19.90;79.70
40257;DHT22;25977;45.462;9.210;2022-10-16T07:29:00;19.90;79.80
40257;DHT22;25977;45.462;9.210;2022-10-16T07:31:26;19.80;79.80
40257;DHT22;25977;45.462;9.210;2022-10-16T07:33:53;19.90;79.90
40257;DHT22;25977;45.462;9.210;2022-10-16T07:36:20;19.90;79.90
40257;DHT22;25977;45.462;9.210;2022-10-16T07:38:46;19.90;79.90
40257;DHT22;25977;45.462;9.210;2022-10-16T07:41:14;19.90;79.80
40257;DHT22;25977;45.462;9.210;2022-10-16T07:43:45;20.00;79.90
40257;DHT22;25977;45.462;9.210;2022-10-16T07:46:11;20.00;79.70
40257;DHT22;25977;45.462;9.210;2022-10-16T07:48:37;20.00;79.70
40257;DHT22;25977;45.462;9.210;2022-10-16T07:51:04;19.80;80.40
40257;DHT22;25977;45.462;9.210;2022-10-16T07:53:31;19.90;79.80
40257;DHT22;25977;45.462;9.210;2022-10-16T07:56:00;20.00;79.90
40257;DHT22;25977;45.462;9.210;2022-10-16T07:58:27;20.00;79.70
40257;DHT22;25977;45.462;9.210;2022-10-16T08:00:54;20.10;79.60
40257;DHT22;25977;45.462;9.210;2022-10-16T08:03:19;20.10;79.60
40257;DHT22;25977;45.462;9.210;2022-10-16T08:05:45;20.10;79.60
40257;DHT22;25977;45.462;9.210;2022-10-16T08:08:13;20.10;79.60
40257;DHT22;25977;45.462;9.210;2022-10-16T08:10:40;20.10;79.60
40257;DHT22;25977;45.462;9.210;2022-10-16T08:13:06;20.10;79.50
40257;DHT22;25977;45.462;9.210;2022-10-16T08:15:31;20.10;79.50
40257;DHT22;25977;45.462;9.210;2022-10-16T08:18:03;20.10;79.30
40257;DHT22;25977;45.462;9.210;2022-10-16T08:20:29;20.10;79.40
40257;DHT22;25977;45.462;9.210;2022-10-16T08:22:55;20.10;79.40
40257;DHT22;25977;45.462;9.210;2022-10-16T08:25:22;20.10;79.40
40257;DHT22;25977;45.462;9.210;2022-10-16T08:27:48;20.00;79.30
40257;DHT22;25977;45.462;9.210;2022-10-16T08:30:14;20.10;80.00
40257;DHT22;25977;45.462;9.210;2022-10-16T08:32:40;20.20;79.30
40257;DHT22;25977;45.462;9.210;2022-10-16T08:35:11;20.20;79.30
40257;DHT22;25977;45.462;9.210;2022-10-16T08:37:37;20.20;79.20
40257;DHT22;25977;45.462;9.210;2022-10-16T08:40:05;20.30;79.20
40257;DHT22;25977;45.462;9.210;2022-10-16T08:50:12;20.30;79.00
40257;DHT22;25977;45.462;9.210;2022-10-16T08:52:42;20.00;79.50
40257;DHT22;25977;45.462;9.210;2022-10-16T08:55:31;19.90;79.90
40257;DHT22;25977;45.462;9.210;2022-10-16T08:57:59;19.90;80.10
40257;DHT22;25977;45.462;9.210;2022-10-16T09:00:26;19.90;80.00
40257;DHT22;25977;45.462;9.210;2022-10-16T09:03:17;20.10;79.60
40257;DHT22;25977;45.462;9.210;2022-10-16T09:09:08;20.30;79.70
40257;DHT22;25977;45.462;9.210;2022-10-16T09:12:00;20.10;79.50
40257;DHT22;25977;45.462;9.210;2022-10-16T09:20:58;20.60;78.80
40257;DHT22;25977;45.462;9.210;2022-10-16T09:25:39;20.80;78.40
40257;DHT22;25977;45.462;9.210;2022-10-16T09:28:08;20.80;78.30
40257;DHT22;25977;45.462;9.210;2022-10-16T09:30:36;20.90;78.20
40257;DHT22;25977;45.462;9.210;2022-10-16T09:33:03;20.90;78.20
40257;DHT22;25977;45.462;9.210;2022-10-16T09:38:01;20.60;78.60
40257;DHT22;25977;45.462;9.210;2022-10-16T09:40:33;20.70;78.40
40257;DHT22;25977;45.462;9.210;2022-10-16T09:43:26;20.90;78.10
40257;DHT22;25977;45.462;9.210;2022-10-16T09:46:05;21.00;77.80
40257;DHT22;25977;45.462;9.210;2022-10-16T09:48:37;21.00;77.80
40257;DHT22;25977;45.462;9.210;2022-10-16T09:51:13;21.20;77.60
40257;DHT22;25977;45.462;9.210;2022-10-16T09:53:43;21.30;77.40
40257;DHT22;25977;45.462;9.210;2022-10-16T09:56:11;21.40;77.30
40257;DHT22;25977;45.462;9.210;2022-10-16T09:58:42;21.50;76.90
40257;DHT22;25977;45.462;9.210;2022-10-16T10:01:14;21.50;76.50
40257;DHT22;25977;45.462;9.210;2022-10-16T10:03:42;21.60;76.50
40257;DHT22;25977;45.462;9.210;2022-10-16T10:06:25;21.60;76.50
40257;DHT22;25977;45.462;9.210;2022-10-16T10:08:57;21.60;76.40
40257;DHT22;25977;45.462;9.210;2022-10-16T10:11:44;21.60;75.80
40257;DHT22;25977;45.462;9.210;2022-10-16T10:16:53;21.50;76.00
40257;DHT22;25977;45.462;9.210;2022-10-16T10:19:27;21.50;75.90
40257;DHT22;25977;45.462;9.210;2022-10-16T10:21:53;21.50;76.00
40257;DHT22;25977;45.462;9.210;2022-10-16T10:24:19;21.40;76.30
40257;DHT22;25977;45.462;9.210;2022-10-16T10:27:00;21.40;76.20
40257;DHT22;25977;45.462;9.210;2022-10-16T10:32:28;21.60;76.30
40257;DHT22;25977;45.462;9.210;2022-10-16T10:37:46;21.80;75.80
40257;DHT22;25977;45.462;9.210;2022-10-16T10:43:24;22.00;75.00
40257;DHT22;25977;45.462;9.210;2022-10-16T10:45:47;22.00;74.90
40257;DHT22;25977;45.462;9.210;2022-10-16T10:48:17;22.00;75.00
40257;DHT22;25977;45.462;9.210;2022-10-16T10:51:04;22.00;74.90
40257;DHT22;25977;45.462;9.210;2022-10-16T10:56:45;22.00;74.70
40257;DHT22;25977;45.462;9.210;2022-10-16T11:02:18;22.00;74.90
40257;DHT22;25977;45.462;9.210;2022-10-16T11:05:11;21.90;75.00
40257;DHT22;25977;45.462;9.210;2022-10-16T11:07:48;22.00;74.80
40257;DHT22;25977;45.462;9.210;2022-10-16T11:10:28;22.10;75.10
40257;DHT22;25977;45.462;9.210;2022-10-16T11:13:10;22.20;75.10
40257;DHT22;25977;45.462;9.210;2022-10-16T11:15:42;22.40;74.60
40257;DHT22;25977;45.462;9.210;2022-10-16T11:20:46;22.40;73.90
40257;DHT22;25977;45.462;9.210;2022-10-16T11:23:30;22.40;73.80
40257;DHT22;25977;45.462;9.210;2022-10-16T11:26:00;22.60;73.50
40257;DHT22;25977;45.462;9.210;2022-10-16T11:28:39;22.70;73.10
40257;DHT22;25977;45.462;9.210;2022-10-16T11:37:01;22.90;72.20
40257;DHT22;25977;45.462;9.210;2022-10-16T11:39:30;22.80;71.50
40257;DHT22;25977;45.462;9.210;2022-10-16T11:45:03;22.60;71.90
40257;DHT22;25977;45.462;9.210;2022-10-16T11:47:58;22.80;72.00
40257;DHT22;25977;45.462;9.210;2022-10-16T11:55:37;23.30;71.10
40257;DHT22;25977;45.462;9.210;2022-10-16T11:58:07;23.40;70.90
40257;DHT22;25977;45.462;9.210;2022-10-16T12:00:44;23.40;70.70
40257;DHT22;25977;45.462;9.210;2022-10-16T12:03:29;23.40;70.60
40257;DHT22;25977;45.462;9.210;2022-10-16T12:08:43;23.40;70.00
40257;DHT22;25977;45.462;9.210;2022-10-16T12:11:37;23.40;70.20
40257;DHT22;25977;45.462;9.210;2022-10-16T12:16:33;23.40;70.60
40257;DHT22;25977;45.462;9.210;2022-10-16T12:19:10;23.50;70.50
40257;DHT22;25977;45.462;9.210;2022-10-16T12:21:37;23.50;69.50
40257;DHT22;25977;45.462;9.210;2022-10-16T12:24:03;23.60;69.60
40257;DHT22;25977;45.462;9.210;2022-10-16T12:26:33;23.70;69.20
40257;DHT22;25977;45.462;9.210;2022-10-16T12:29:14;23.70;68.40
40257;DHT22;25977;45.462;9.210;2022-10-16T12:31:48;23.70;68.80
40257;DHT22;25977;45.462;9.210;2022-10-16T12:34:29;23.60;69.10
40257;DHT22;25977;45.462;9.210;2022-10-16T12:36:55;23.50;69.30
40257;DHT22;25977;45.462;9.210;2022-10-16T12:39:32;23.60;69.60
40257;DHT22;25977;45.462;9.210;2022-10-16T12:42:20;23.70;69.10
40257;DHT22;25977;45.462;9.210;2022-10-16T12:44:46;23.70;69.60
40257;DHT22;25977;45.462;9.210;2022-10-16T12:49:58;23.90;68.40
40257;DHT22;25977;45.462;9.210;2022-10-16T12:52:44;23.90;68.10
40257;DHT22;25977;45.462;9.210;2022-10-16T12:55:17;23.80;68.70
40257;DHT22;25977;45.462;9.210;2022-10-16T12:58:15;23.70;68.70
40257;DHT22;25977;45.462;9.210;2022-10-16T13:28:32;23.90;69.10
40257;DHT22;25977;45.462;9.210;2022-10-16T13:30:59;23.90;69.00
40257;DHT22;25977;45.462;9.210;2022-10-16T13:33:38;24.00;68.80
40257;DHT22;25977;45.462;9.210;2022-10-16T13:36:05;24.00;68.90
40257;DHT22;25977;45.462;9.210;2022-10-16T13:38:35;23.90;68.60
40257;DHT22;25977;45.462;9.210;2022-10-16T13:41:16;24.00;68.50
40257;DHT22;25977;45.462;9.210;2022-10-16T13:43:45;24.00;68.40
40257;DHT22;25977;45.462;9.210;2022-10-16T13:46:22;24.00;68.40
40257;DHT22;25977;45.462;9.210;2022-10-16T13:48:58;24.00;68.70
40257;DHT22;25977;45.462;9.210;2022-10-16T13:51:24;23.80;69.20
40257;DHT22;25977;45.462;9.210;2022-10-16T13:53:50;23.40;69.20
40257;DHT22;25977;45.462;9.210;2022-10-16T13:56:19;23.30;70.10
40257;DHT22;25977;45.462;9.210;2022-10-16T13:58:46;23.20;69.90
40257;DHT22;25977;45.462;9.210;2022-10-16T14:01:28;23.10;69.90
40257;DHT22;25977;45.462;9.210;2022-10-16T14:04:04;23.30;70.10
40257;DHT22;25977;45.462;9.210;2022-10-16T14:06:31;23.20;70.30
40257;DHT22;25977;45.462;9.210;2022-10-16T14:09:05;23.40;70.10
40257;DHT22;25977;45.462;9.210;2022-10-16T14:11:32;23.50;70.00
40257;DHT22;25977;45.462;9.210;2022-10-16T14:13:59;23.60;69.80
40257;DHT22;25977;45.462;9.210;2022-10-16T14:16:28;23.70;69.70
40257;DHT22;25977;45.462;9.210;2022-10-16T14:19:03;23.70;69.60
40257;DHT22;25977;45.462;9.210;2022-10-16T14:21:29;23.80;69.50
40257;DHT22;25977;45.462;9.210;2022-10-16T14:23:55;23.60;69.30
40257;DHT22;25977;45.462;9.210;2022-10-16T14:26:27;23.50;69.50
40257;DHT22;25977;45.462;9.210;2022-10-16T14:29:18;23.60;69.50
40257;DHT22;25977;45.462;9.210;2022-10-16T14:32:05;23.70;69.20
40257;DHT22;25977;45.462;9.210;2022-10-16T14:34:37;23.70;69.10
40257;DHT22;25977;45.462;9.210;2022-10-16T14:37:28;23.70;69.10
40257;DHT22;25977;45.462;9.210;2022-10-16T14:39:55;23.60;68.90
40257;DHT22;25977;45.462;9.210;2022-10-16T14:42:23;23.60;69.20
40257;DHT22;25977;45.462;9.210;2022-10-16T14:44:53;23.60;69.30
40257;DHT22;25977;45.462;9.210;2022-10-16T14:47:24;23.60;69.10
40257;DHT22;25977;45.462;9.210;2022-10-16T14:49:52;23.60;69.20
40257;DHT22;25977;45.462;9.210;2022-10-16T14:52:20;23.50;69.40
40257;DHT22;25977;45.462;9.210;2022-10-16T14:54:50;23.50;69.40
40257;DHT22;25977;45.462;9.210;2022-10-16T14:57:22;23.50;69.40
40257;DHT22;25977;45.462;9.210;2022-10-16T14:59:48;23.50;69.50
40257;DHT22;25977;45.462;9.210;2022-10-16T15:02:29;23.40;69.10
40257;DHT22;25977;45.462;9.210;2022-10-16T15:04:56;23.40;69.30
40257;DHT22;25977;45.462;9.210;2022-10-16T15:07:22;23.40;69.20
40257;DHT22;25977;45.462;9.210;2022-10-16T15:09:48;23.40;69.30
40257;DHT22;25977;45.462;9.210;2022-10-16T15:12:14;23.30;69.30
40257;DHT22;25977;45.462;9.210;2022-10-16T15:14:39;23.40;69.30
40257;DHT22;25977;45.462;9.210;2022-10-16T15:17:07;23.30;69.40
40257;DHT22;25977;45.462;9.210;2022-10-16T15:19:33;23.40;69.50
40257;DHT22;25977;45.462;9.210;2022-10-16T15:21:59;23.40;69.60
40257;DHT22;25977;45.462;9.210;2022-10-16T15:24:25;23.40;69.70
40257;DHT22;25977;45.462;9.210;2022-10-16T15:26:51;23.40;69.80
40257;DHT22;25977;45.462;9.210;2022-10-16T15:29:16;23.40;69.80
40257;DHT22;25977;45.462;9.210;2022-10-16T15:31:42;23.40;69.80
40257;DHT22;25977;45.462;9.210;2022-10-16T15:34:09;23.40;69.90
40257;DHT22;25977;45.462;9.210;2022-10-16T15:36:37;23.10;70.10
40257;DHT22;25977;45.462;9.210;2022-10-16T15:39:15;23.20;70.30
40257;DHT22;25977;45.462;9.210;2022-10-16T15:41:41;23.30;70.30
40257;DHT22;25977;45.462;9.210;2022-10-16T15:44:08;23.20;70.30
40257;DHT22;25977;45.462;9.210;2022-10-16T15:46:34;23.30;70.40
40257;DHT22;25977;45.462;9.210;2022-10-16T15:49:00;23.20;70.30
40257;DHT22;25977;45.462;9.210;2022-10-16T15:51:27;23.20;70.40
40257;DHT22;25977;45.462;9.210;2022-10-16T15:53:56;23.20;70.30
40257;DHT22;25977;45.462;9.210;2022-10-16T15:56:23;23.00;70.50
40257;DHT22;25977;45.462;9.210;2022-10-16T15:58:51;23.10;70.70
40257;DHT22;25977;45.462;9.210;2022-10-16T16:01:17;23.00;70.90
40257;DHT22;25977;45.462;9.210;2022-10-16T16:03:42;23.00;70.90
40257;DHT22;25977;45.462;9.210;2022-10-16T16:06:11;23.00;70.80
40257;DHT22;25977;45.462;9.210;2022-10-16T16:08:38;23.00;70.80
40257;DHT22;25977;45.462;9.210;2022-10-16T16:11:05;23.00;70.70
40257;DHT22;25977;45.462;9.210;2022-10-16T16:13:31;23.00;70.80
40257;DHT22;25977;45.462;9.210;2022-10-16T16:15:57;23.00;70.80
40257;DHT22;25977;45.462;9.210;2022-10-16T16:18:24;23.00;70.80
40257;DHT22;25977;45.462;9.210;2022-10-16T16:20:50;23.00;70.80
40257;DHT22;25977;45.462;9.210;2022-10-16T16:23:16;23.00;70.70
40257;DHT22;25977;45.462;9.210;2022-10-16T16:25:42;23.00;70.80
40257;DHT22;25977;45.462;9.210;2022-10-16T16:28:08;23.00;70.80
40257;DHT22;25977;45.462;9.210;2022-10-16T16:30:36;23.00;70.90
40257;DHT22;25977;45.462;9.210;2022-10-16T16:33:02;22.90;70.90
40257;DHT22;25977;45.462;9.210;2022-10-16T16:35:28;22.80;71.20
40257;DHT22;25977;45.462;9.210;2022-10-16T16:37:54;22.80;71.20
40257;DHT22;25977;45.462;9.210;2022-10-16T16:40:20;22.90;71.30
40257;DHT22;25977;45.462;9.210;2022-10-16T16:42:48;22.90;71.20
40257;DHT22;25977;45.462;9.210;2022-10-16T16:45:14;22.80;71.20
40257;DHT22;25977;45.462;9.210;2022-10-16T16:47:39;22.80;71.10
40257;DHT22;25977;45.462;9.210;2022-10-16T16:50:06;22.80;71.30
40257;DHT22;25977;45.462;9.210;2022-10-16T16:52:35;22.80;71.40
40257;DHT22;25977;45.462;9.210;2022-10-16T16:55:01;22.80;71.40
40257;DHT22;25977;45.462;9.210;2022-10-16T16:57:27;22.70;71.50
40257;DHT22;25977;45.462;9.210;2022-10-16T16:59:53;22.70;71.60
40257;DHT22;25977;45.462;9.210;2022-10-16T17:02:19;22.70;71.70
40257;DHT22;25977;45.462;9.210;2022-10-16T17:04:45;22.70;72.10
40257;DHT22;25977;45.462;9.210;2022-10-16T17:07:11;22.60;72.40
40257;DHT22;25977;45.462;9.210;2022-10-16T17:09:36;22.70;72.60
40257;DHT22;25977;45.462;9.210;2022-10-16T17:12:02;22.60;72.70
40257;DHT22;25977;45.462;9.210;2022-10-16T17:14:28;22.60;72.70
40257;DHT22;25977;45.462;9.210;2022-10-16T17:16:54;22.50;72.60
40257;DHT22;25977;45.462;9.210;2022-10-16T17:19:20;22.50;73.30
40257;DHT22;25977;45.462;9.210;2022-10-16T17:21:48;22.50;72.90
40257;DHT22;25977;45.462;9.210;2022-10-16T17:24:15;22.50;73.10
40257;DHT22;25977;45.462;9.210;2022-10-16T17:26:41;22.50;73.30
40257;DHT22;25977;45.462;9.210;2022-10-16T17:29:11;22.40;73.30